Terminal Aerodrome Forecast
Issued by NWS Corpus Christi, TX

Home | Current Version | Previous Version | Text Only | Print | Product List | Glossary On
Versions: 1 2 3 4 5 6 7 8 9 10 11 12 13 14 15 16 17 18 19 20
352
FTUS44 KCRP 291243 AAA
TAFVCT
TAF AMD
KVCT 291243Z 2913/3012 14014KT 2SM BR OVC007
      TEMPO 2913/2915 1SM BR OVC004
     FM291500 15017KT 5SM HZ BKN015 OVC025
     FM291900 14015KT P6SM VCTS BKN025CB
     FM300000 14012KT P6SM BKN020
      TEMPO 3000/3004 VRB20G35KT 3SM +TSRA OVC015CB
     FM300400 15008KT 5SM BR BKN012
      TEMPO 3004/3008 3SM TSRA BR OVC009CB=

USA.gov is the U.S. government's official web portal to all federal, state and local government web resources and services.